Time;durP1;ratioP1;P1;durP2;ratioP2;P2;SDS_P1;SDS_P2;PMS_P1;PMS_P2;Temp;Humidity;BMP_temperature;BMP_pressure;BME280_temperature;BME280_humidity;BME280_pressure;Samples;Min_cycle;Max_cycle;Signal;HPM_P1;HPM_P2
2022/01/23 00:00:05;;;;;;;;;58.67;46.33;;;;;6.61;69.86;102919.66;5141809;27;45255;-84
2022/01/23 00:02:33;;;;;;;;;60.67;49.67;;;;;6.64;70.46;102920.75;5141006;27;45574;-84
2022/01/23 00:05:06;;;;;;;;;57.00;44.00;;;;;6.55;70.25;102907.13;5141608;27;45365;-84
2022/01/23 00:07:33;;;;;;;;;47.67;41.33;;;;;6.83;69.41;102959.41;5141649;27;45230;-84
2022/01/23 00:10:00;;;;;;;;;46.50;38.50;;;;;6.80;69.32;102961.84;5141597;27;45391;-85
2022/01/23 00:12:27;;;;;;;;;40.00;38.00;;;;;6.82;69.71;102961.13;5141281;27;45431;-84
2022/01/23 00:17:37;;;;;;;;;47.00;39.50;;;;;6.73;69.00;102946.59;5120983;27;45444;-85
2022/01/23 00:20:07;;;;;;;;;58.25;41.50;;;;;6.73;69.68;102942.25;5120864;27;45278;-84
2022/01/23 00:30:35;;;;;;;;;47.75;42.75;;;;;6.73;68.98;102939.63;5120804;27;45156;-83
2022/01/23 00:33:03;;;;;;;;;50.25;39.00;;;;;6.61;69.19;102907.50;5138691;27;45355;-84
2022/01/23 00:35:30;;;;;;;;;58.75;44.00;;;;;6.79;70.04;102942.63;5140989;27;45372;-83
2022/01/23 00:37:56;;;;;;;;;46.75;38.25;;;;;6.64;69.88;102920.75;5141273;27;45318;-82
2022/01/23 00:40:22;;;;;;;;;45.25;38.25;;;;;6.76;69.16;102938.91;5141099;27;45517;-80
2022/01/23 00:42:48;;;;;;;;;50.00;40.50;;;;;6.62;69.66;102917.16;5141258;27;47315;-84
2022/01/23 00:45:27;;;;;;;;;50.00;42.75;;;;;6.71;69.39;102932.50;5122867;27;46103;-84
2022/01/23 00:48:02;;;;;;;;;53.50;41.25;;;;;6.63;68.95;102916.34;5141558;27;45283;-83
2022/01/23 00:50:31;;;;;;;;;44.00;38.50;;;;;6.74;69.56;102930.97;5141775;27;45476;-83
2022/01/23 00:52:57;;;;;;;;;34.25;31.00;;;;;6.33;70.06;102870.94;5150064;27;46475;-84
2022/01/23 00:55:22;;;;;;;;;42.75;37.25;;;;;6.63;69.64;102923.28;5165748;27;45368;-84
2022/01/23 00:57:48;;;;;;;;;43.33;39.33;;;;;6.41;69.37;102874.00;5169750;27;44733;-83
2022/01/23 01:00:14;;;;;;;;;37.25;30.25;;;;;6.43;70.13;102875.91;5168885;27;44657;-84
2022/01/23 01:02:40;;;;;;;;;39.25;36.00;;;;;6.45;68.94;102881.22;5156756;27;45163;-82
2022/01/23 01:05:07;;;;;;;;;33.75;28.00;;;;;6.68;69.30;102927.97;5148914;27;44784;-83
2022/01/23 01:07:32;;;;;;;;;43.75;38.00;;;;;6.70;69.79;102930.66;5140752;27;44792;-83
2022/01/23 01:10:04;;;;;;;;;46.00;36.00;;;;;6.60;69.81;102910.91;5136235;27;45289;-84
2022/01/23 01:12:38;;;;;;;;;40.75;36.50;;;;;6.42;68.89;102865.31;5144069;27;46099;-83
2022/01/23 01:31:27;;;;;;;;;46.25;38.50;;;;;6.33;68.82;102849.06;5142204;27;45353;-82
2022/01/23 01:33:58;;;;;;;;;38.25;34.75;;;;;6.60;69.18;102908.28;5140187;27;46600;-83
2022/01/23 01:36:31;;;;;;;;;41.50;36.75;;;;;6.49;69.65;102885.81;5140169;27;45388;-84
2022/01/23 01:38:57;;;;;;;;;44.00;34.00;;;;;6.40;69.49;102870.47;5140461;27;45367;-85
2022/01/23 01:41:22;;;;;;;;;40.25;36.75;;;;;6.67;69.34;102913.06;5130896;27;45400;-83
2022/01/23 01:43:49;;;;;;;;;38.00;36.00;;;;;6.39;68.89;102867.78;5123301;27;46081;-85
2022/01/23 01:46:15;;;;;;;;;41.75;35.75;;;;;6.70;69.11;102931.59;5119466;27;45432;-84
2022/01/23 01:48:41;;;;;;;;;43.00;35.00;;;;;6.55;68.77;102894.03;5118623;27;45375;-84
2022/01/23 01:51:12;;;;;;;;;38.50;36.50;;;;;6.62;68.78;102901.44;5119139;27;45294;-84
2022/01/23 01:53:37;;;;;;;;;40.50;31.00;;;;;6.54;69.06;102892.25;5099766;27;47666;-84
2022/01/23 01:56:05;;;;;;;;;36.75;31.00;;;;;6.66;69.29;102916.50;5125675;27;45573;-84
2022/01/23 02:09:10;;;;;;;;;42.75;31.25;;;;;6.55;68.88;102894.94;5075785;28;45321;-83
2022/01/23 02:57:09;;;;;;;;;36.25;31.50;;;;;6.43;68.30;102854.06;5139971;27;45357;-86
2022/01/23 02:59:37;;;;;;;;;35.50;27.00;;;;;6.54;68.59;102866.06;5139608;27;45228;-85
2022/01/23 03:02:25;;;;;;;;;36.75;28.75;;;;;6.50;69.04;102874.53;5139172;27;45352;-84
2022/01/23 03:04:53;;;;;;;;;41.75;34.25;;;;;6.40;69.28;102860.00;5140430;27;45295;-83
2022/01/23 03:10:27;;;;;;;;;43.25;37.00;;;;;6.30;68.94;102828.88;5058286;28;45587;-86
2022/01/23 03:29:19;;;;;;;;;38.50;33.25;;;;;6.08;68.23;102786.56;5037472;28;46035;-84
2022/01/23 03:34:30;;;;;;;;;44.50;31.50;;;;;6.08;68.53;102787.47;5037701;28;45254;-84
2022/01/23 03:36:56;;;;;;;;;30.00;29.00;;;;;6.13;68.65;102791.25;5023689;28;45517;-83
2022/01/23 03:39:23;;;;;;;;;44.00;35.00;;;;;6.47;69.03;102850.78;5017725;28;45479;-84
2022/01/23 03:41:49;;;;;;;;;37.75;31.75;;;;;6.45;68.49;102848.09;5017821;28;45557;-84
2022/01/23 03:44:16;;;;;;;;;38.50;33.50;;;;;6.41;69.19;102847.81;5017764;28;45748;-84
2022/01/23 03:51:58;;;;;;;;;38.25;33.75;;;;;6.20;68.90;102822.19;5017213;28;45500;-84
2022/01/23 03:54:24;;;;;;;;;34.25;25.75;;;;;6.27;68.88;102840.06;5017191;28;45487;-84
2022/01/23 03:56:50;;;;;;;;;42.75;36.50;;;;;6.13;69.08;102806.94;5017551;28;45315;-84
2022/01/23 03:59:15;;;;;;;;;34.00;32.75;;;;;6.39;68.89;102845.09;5017201;28;46250;-84
2022/01/23 04:01:41;;;;;;;;;42.75;34.25;;;;;6.25;69.25;102820.75;5017205;28;45309;-84
2022/01/23 04:04:19;;;;;;;;;34.00;31.75;;;;;6.34;69.13;102828.25;5016836;28;45281;-84
2022/01/23 04:06:44;;;;;;;;;42.25;35.75;;;;;6.44;68.86;102842.78;5017356;28;45309;-84
2022/01/23 04:09:11;;;;;;;;;40.50;34.50;;;;;6.11;69.33;102778.88;5016953;28;47214;-84
2022/01/23 04:11:36;;;;;;;;;34.50;33.25;;;;;6.21;68.69;102799.53;5068867;27;45502;-84
2022/01/23 04:14:06;;;;;;;;;34.00;30.00;;;;;6.11;68.77;102778.88;5121038;27;45151;-84
2022/01/23 04:32:57;;;;;;;;;41.25;29.25;;;;;6.17;68.78;102794.97;5120872;27;45324;-83
2022/01/23 04:59:50;;;;;;;;;40.00;29.25;;;;;6.29;69.48;102842.78;5077386;28;45255;-84
2022/01/23 05:04:59;;;;;;;;;43.00;30.75;;;;;6.15;69.37;102815.81;5076793;28;45475;-84
2022/01/23 05:07:28;;;;;;;;;34.75;29.75;;;;;6.30;69.46;102839.34;5077246;27;45936;-82
2022/01/23 05:09:54;;;;;;;;;34.50;30.25;;;;;6.25;69.26;102831.22;5096997;27;45489;-83
2022/01/23 05:12:23;;;;;;;;;34.00;33.25;;;;;6.34;69.46;102853.53;5096750;27;45332;-84
2022/01/23 05:14:49;;;;;;;;;34.50;30.25;;;;;6.05;69.46;102789.94;5097287;27;45429;-83
2022/01/23 05:17:15;;;;;;;;;32.00;29.00;;;;;6.25;68.78;102826.00;5097139;27;45355;-83
2022/01/23 05:19:42;;;;;;;;;27.75;25.25;;;;;6.36;69.00;102849.28;5099598;27;45455;-83
2022/01/23 05:24:57;;;;;;;;;36.75;30.75;;;;;6.16;69.64;102829.78;5119443;27;45313;-83
2022/01/23 05:27:23;;;;;;;;;31.75;28.75;;;;;6.11;69.87;102831.22;5118710;27;45156;-83
2022/01/23 05:29:49;;;;;;;;;30.00;29.50;;;;;6.20;69.78;102857.94;5119629;27;45238;-84
2022/01/23 05:32:15;;;;;;;;;36.75;34.75;;;;;5.98;69.51;102809.59;5119150;27;46311;-84
2022/01/23 05:34:42;;;;;;;;;32.75;29.50;;;;;5.95;69.79;102795.41;5119253;27;45298;-84
2022/01/23 05:37:07;;;;;;;;;33.50;32.50;;;;;6.19;69.29;102843.06;5119236;27;45353;-83
2022/01/23 05:39:34;;;;;;;;;29.25;25.25;;;;;5.91;68.98;102807.41;5119682;27;45247;-83
2022/01/23 05:42:10;;;;;;;;;30.00;26.50;;;;;6.07;68.52;102827.53;5119365;27;46452;-83
2022/01/23 05:44:41;;;;;;;;;27.00;23.00;;;;;5.97;68.70;102810.41;5119238;27;45277;-83
2022/01/23 05:47:09;;;;;;;;;30.00;25.00;;;;;6.13;69.38;102840.06;5119172;27;45306;-84
2022/01/23 05:49:35;;;;;;;;;28.25;25.75;;;;;6.09;69.02;102844.22;5119656;27;45334;-83
2022/01/23 05:52:02;;;;;;;;;29.25;26.75;;;;;6.16;68.46;102850.72;5119548;27;46321;-83
2022/01/23 05:54:27;;;;;;;;;31.25;27.25;;;;;5.99;68.39;102816.63;5100420;27;45231;-84
2022/01/23 05:56:53;;;;;;;;;38.50;31.25;;;;;5.81;68.75;102802.41;5119271;27;45278;-83
2022/01/23 05:59:20;;;;;;;;;31.00;30.25;;;;;5.88;69.40;102825.50;5134831;27;45200;-83
2022/01/23 06:01:46;;;;;;;;;26.00;24.50;;;;;6.04;68.78;102845.66;5139385;27;45390;-83
2022/01/23 06:04:12;;;;;;;;;32.75;27.00;;;;;6.13;69.37;102858.38;5139087;27;45391;-83
2022/01/23 06:06:38;;;;;;;;;31.75;24.50;;;;;5.98;68.84;102832.22;5139544;27;45369;-84
2022/01/23 06:09:05;;;;;;;;;28.50;24.50;;;;;5.93;69.71;102824.09;5139188;27;45513;-84
2022/01/23 06:11:30;;;;;;;;;26.00;25.25;;;;;6.05;69.06;102834.41;5139337;27;46597;-84
2022/01/23 06:13:55;;;;;;;;;30.25;24.75;;;;;6.00;69.53;102831.50;5139208;27;45348;-83
2022/01/23 06:16:21;;;;;;;;;36.00;29.25;;;;;6.15;69.09;102862.00;5126254;27;45312;-84
2022/01/23 06:18:46;;;;;;;;;25.75;23.50;;;;;5.99;69.11;102831.41;5118706;27;45365;-83
2022/01/23 06:21:16;;;;;;;;;25.25;21.25;;;;;6.17;68.70;102852.53;5100030;27;47534;-83
2022/01/23 06:23:42;;;;;;;;;24.25;21.50;;;;;5.98;68.35;102824.38;5103519;27;45349;-83
2022/01/23 06:26:07;;;;;;;;;25.50;23.00;;;;;5.89;68.47;102806.38;5118716;27;45341;-84
2022/01/23 06:28:47;;;;;;;;;24.75;22.50;;;;;5.88;67.91;102806.31;5118912;27;45321;-84
2022/01/23 06:31:12;;;;;;;;;30.25;24.75;;;;;5.70;68.42;102780.84;5118047;27;45667;-84
2022/01/23 06:33:38;;;;;;;;;19.25;15.25;;;;;6.10;68.00;102846.03;5118376;27;45261;-85
2022/01/23 06:36:04;;;;;;;;;20.25;17.75;;;;;5.96;68.07;102820.78;5118457;27;45243;-85
2022/01/23 06:38:30;;;;;;;;;29.25;23.25;;;;;6.20;68.64;102865.78;5119626;27;45266;-84
2022/01/23 06:40:55;;;;;;;;;24.50;19.25;;;;;5.89;68.42;102824.69;5122080;27;45344;-85
2022/01/23 06:43:21;;;;;;;;;20.00;17.25;;;;;6.11;68.15;102857.38;5122223;27;45361;-85
2022/01/23 06:45:46;;;;;;;;;19.00;19.00;;;;;5.85;67.92;102801.75;5122159;27;45293;-82
2022/01/23 06:48:12;;;;;;;;;16.00;13.00;;;;;6.06;68.33;102851.00;5121628;27;45361;-85
2022/01/23 06:50:37;;;;;;;;;17.75;16.50;;;;;5.72;68.33;102801.84;5121758;27;45549;-83
2022/01/23 06:53:03;;;;;;;;;16.75;15.50;;;;;5.76;68.32;102811.69;5121785;27;45392;-85
2022/01/23 06:55:28;;;;;;;;;13.25;12.50;;;;;5.97;69.07;102852.25;5121972;27;45400;-85
2022/01/23 06:57:53;;;;;;;;;12.25;10.00;;;;;5.91;68.80;102837.91;5121904;27;45312;-85
2022/01/23 07:00:19;;;;;;;;;16.50;15.25;;;;;6.06;68.79;102864.97;5121545;27;46184;-85
2022/01/23 07:02:44;;;;;;;;;14.50;12.75;;;;;5.92;68.38;102843.22;5141419;27;45377;-85
2022/01/23 07:05:10;;;;;;;;;15.50;15.50;;;;;5.94;68.71;102845.91;5142897;27;45203;-85
2022/01/23 07:07:35;;;;;;;;;17.00;14.00;;;;;5.79;68.42;102829.28;5142507;27;45209;-84
2022/01/23 07:10:00;;;;;;;;;17.25;14.00;;;;;5.72;67.78;102810.59;5142160;27;45361;-85
2022/01/23 07:12:26;;;;;;;;;21.00;15.00;;;;;5.76;68.35;102819.53;5142289;27;45238;-84
2022/01/23 07:14:51;;;;;;;;;19.25;16.75;;;;;5.83;69.06;102836.50;5142809;27;45399;-85
2022/01/23 07:17:17;;;;;;;;;19.25;18.75;;;;;5.99;68.89;102870.66;5142510;27;45407;-85
2022/01/23 07:19:42;;;;;;;;;20.75;18.75;;;;;5.46;69.17;102768.00;5142057;27;45510;-84
2022/01/23 07:22:08;;;;;;;;;18.00;17.50;;;;;5.90;69.30;102847.44;5142560;27;45323;-84
2022/01/23 07:24:33;;;;;;;;;28.00;20.50;;;;;5.98;68.70;102866.22;5142397;27;45255;-85
2022/01/23 07:27:01;;;;;;;;;23.25;17.25;;;;;6.03;67.81;102883.09;5142686;27;45424;-85
2022/01/23 07:29:26;;;;;;;;;16.25;15.75;;;;;5.72;67.84;102830.63;5141986;27;45399;-85
2022/01/23 07:32:00;;;;;;;;;21.50;16.00;;;;;5.95;68.75;102866.03;5141833;27;45429;-84
2022/01/23 07:34:26;;;;;;;;;14.75;14.50;;;;;5.86;68.47;102854.97;5142538;27;45421;-84
2022/01/23 07:36:52;;;;;;;;;21.00;19.00;;;;;5.59;68.67;102820.25;5142168;27;45403;-85
2022/01/23 07:39:17;;;;;;;;;25.25;17.25;;;;;5.52;68.51;102812.81;5138279;27;45351;-84
2022/01/23 07:41:43;;;;;;;;;24.25;19.00;;;;;5.67;68.53;102840.78;5121145;27;45322;-84
2022/01/23 07:44:08;;;;;;;;;15.25;15.25;;;;;5.54;69.09;102819.94;5121446;27;45309;-84
2022/01/23 07:46:34;;;;;;;;;21.50;17.75;;;;;5.78;68.54;102857.16;5102857;27;45402;-84
2022/01/23 07:48:59;;;;;;;;;17.25;17.25;;;;;5.58;68.35;102845.44;5120558;27;45519;-83
2022/01/23 07:51:24;;;;;;;;;25.00;15.00;;;;;5.66;69.08;102870.34;5127199;27;45446;-83
2022/01/23 07:53:50;;;;;;;;;21.25;21.25;;;;;5.67;68.50;102871.25;5142519;27;45202;-84
2022/01/23 07:56:16;;;;;;;;;23.25;17.25;;;;;5.65;69.08;102871.16;5142197;27;45217;-81
2022/01/23 07:58:41;;;;;;;;;16.75;15.00;;;;;5.49;68.78;102855.38;5141922;27;46366;-84
2022/01/23 08:01:07;;;;;;;;;17.50;16.25;;;;;5.47;68.84;102845.59;5141584;27;45317;-83
2022/01/23 08:03:32;;;;;;;;;30.25;22.50;;;;;5.60;69.08;102861.25;5141242;27;45480;-83
2022/01/23 08:05:58;;;;;;;;;21.00;18.75;;;;;5.66;68.82;102893.88;5142386;27;45376;-83
2022/01/23 08:08:23;;;;;;;;;24.50;19.50;;;;;5.48;69.32;102858.75;5141833;27;46277;-82
2022/01/23 08:10:49;;;;;;;;;20.50;19.50;;;;;5.38;68.72;102822.41;5141590;27;45225;-84
2022/01/23 08:13:14;;;;;;;;;19.75;16.50;;;;;5.78;68.64;102903.31;5141413;27;45214;-83
2022/01/23 08:15:39;;;;;;;;;19.50;16.00;;;;;5.59;68.98;102870.81;5141580;27;45406;-84
2022/01/23 08:18:07;;;;;;;;;24.00;22.50;;;;;5.77;68.29;102891.03;5141301;27;45488;-84
2022/01/23 08:20:34;;;;;;;;;23.50;20.00;;;;;5.84;68.21;102893.22;5141197;27;45462;-83
2022/01/23 08:23:03;;;;;;;;;16.75;15.50;;;;;5.85;68.70;102892.41;5141691;27;45332;-84
2022/01/23 08:25:30;;;;;;;;;25.00;23.25;;;;;5.80;67.62;102892.13;5141382;27;45395;-84
2022/01/23 08:27:56;;;;;;;;;21.75;18.50;;;;;5.70;67.79;102871.47;5141378;27;46672;-84
2022/01/23 08:30:22;;;;;;;;;18.75;18.00;;;;;5.86;67.95;102894.22;5141139;27;45403;-84
2022/01/23 08:32:48;;;;;;;;;22.00;19.50;;;;;5.86;68.04;102905.59;5141219;27;45340;-84
2022/01/23 08:35:14;;;;;;;;;23.75;21.25;;;;;5.88;68.08;102916.16;5141253;27;45336;-83
2022/01/23 08:37:40;;;;;;;;;20.75;19.25;;;;;5.73;68.09;102888.22;5141360;27;45344;-85
2022/01/23 08:40:44;;;;;;;;;20.75;18.75;;;;;5.57;67.59;102855.81;5141329;27;45392;-85
2022/01/23 08:43:09;;;;;;;;;20.50;16.25;;;;;5.66;67.87;102901.72;5135287;27;45496;-84
2022/01/23 08:45:34;;;;;;;;;26.25;19.25;;;;;5.59;68.70;102893.44;5131091;27;45236;-84
2022/01/23 08:48:00;;;;;;;;;19.50;16.00;;;;;5.70;67.85;102908.97;5123502;27;46345;-83
2022/01/23 08:50:25;;;;;;;;;22.75;21.25;;;;;5.37;67.89;102847.66;5129041;27;45222;-83
2022/01/23 08:52:51;;;;;;;;;25.75;24.25;;;;;5.51;68.29;102868.53;5120125;27;45480;-81
2022/01/23 08:55:18;;;;;;;;;25.75;22.50;;;;;5.68;68.04;102891.41;5139227;27;45419;-83
2022/01/23 08:57:44;;;;;;;;;23.75;19.25;;;;;5.56;68.55;102867.09;5134420;27;46247;-82
2022/01/23 09:00:10;;;;;;;;;27.00;22.50;;;;;5.87;67.99;102919.59;5123996;27;45282;-82
2022/01/23 09:02:35;;;;;;;;;25.50;21.50;;;;;5.84;68.17;102920.28;5118240;27;45512;-83
2022/01/23 09:05:01;;;;;;;;;24.25;23.25;;;;;5.83;68.23;102912.34;5120679;27;45333;-83
2022/01/23 09:07:27;;;;;;;;;23.25;22.00;;;;;5.81;68.62;102913.97;5137915;27;45402;-82
2022/01/23 09:10:00;;;;;;;;;23.75;22.25;;;;;5.60;68.47;102885.69;5103139;27;45390;-83
2022/01/23 09:12:45;;;;;;;;;27.00;24.25;;;;;5.51;68.69;102877.28;5138200;27;45456;-83
2022/01/23 09:15:10;;;;;;;;;27.75;25.25;;;;;5.49;69.34;102863.22;5136816;27;45515;-83
2022/01/23 09:17:36;;;;;;;;;20.75;20.50;;;;;5.68;68.76;102886.16;5137908;27;45476;-84
2022/01/23 09:20:02;;;;;;;;;27.00;23.25;;;;;5.59;68.74;102859.44;5138401;27;45399;-84
2022/01/23 09:22:30;;;;;;;;;23.50;20.50;;;;;5.50;68.47;102851.03;5137925;27;45344;-82
2022/01/23 09:24:56;;;;;;;;;14.75;11.50;;;;;5.90;67.99;102911.91;5138131;27;45579;-81
2022/01/23 09:27:22;;;;;;;;;20.50;19.00;;;;;5.61;68.65;102850.00;5129349;27;46579;-82
2022/01/23 09:29:51;;;;;;;;;24.50;18.75;;;;;5.98;68.14;102915.94;5137946;27;45427;-83
2022/01/23 09:32:20;;;;;;;;;24.00;22.75;;;;;6.03;68.83;102911.88;5137627;27;45410;-83
2022/01/23 09:34:46;;;;;;;;;36.75;27.25;;;;;5.97;67.71;102917.66;5137657;27;45287;-85
2022/01/23 09:37:15;;;;;;;;;26.50;20.50;;;;;5.76;67.58;102881.38;5106552;27;46163;-83
2022/01/23 09:39:42;;;;;;;;;24.00;23.50;;;;;5.94;68.10;102914.81;5120847;27;45535;-83
2022/01/23 09:42:16;;;;;;;;;24.50;21.25;;;;;5.72;68.08;102878.59;5118100;27;45460;-82
2022/01/23 09:44:46;;;;;;;;;19.75;17.75;;;;;5.53;67.89;102869.53;5117117;27;45627;-83
2022/01/23 09:47:13;;;;;;;;;26.50;21.50;;;;;5.89;67.53;102924.09;5117353;27;46057;-83
2022/01/23 09:49:40;;;;;;;;;23.75;16.00;;;;;5.60;67.86;102880.47;5130308;27;45518;-84
2022/01/23 09:52:08;;;;;;;;;24.25;20.50;;;;;5.44;67.59;102851.56;5120259;27;45668;-80
2022/01/23 09:54:38;;;;;;;;;19.50;18.00;;;;;5.53;68.57;102883.50;5121019;27;45392;-83
2022/01/23 09:57:06;;;;;;;;;17.50;14.25;;;;;5.43;67.72;102886.34;5135789;27;45681;-84
2022/01/23 09:59:32;;;;;;;;;24.75;21.00;;;;;5.69;68.96;102933.31;5114959;27;45491;-84
2022/01/23 10:01:58;;;;;;;;;21.75;17.75;;;;;5.52;68.46;102891.25;5111589;27;45409;-83
2022/01/23 10:04:25;;;;;;;;;23.00;22.00;;;;;5.74;68.98;102925.75;5117183;27;45685;-80
2022/01/23 10:06:52;;;;;;;;;23.75;19.50;;;;;5.76;68.98;102925.84;5117995;27;45571;-82
2022/01/23 10:09:20;;;;;;;;;20.50;16.00;;;;;5.33;68.97;102850.88;5119640;27;45307;-84
2022/01/23 10:11:49;;;;;;;;;22.50;18.50;;;;;5.66;68.84;102930.50;5120051;27;45506;-78
2022/01/23 10:14:17;;;;;;;;;21.25;19.75;;;;;5.64;68.69;102926.00;5133873;27;45403;-83
2022/01/23 10:16:44;;;;;;;;;20.25;18.00;;;;;5.19;68.97;102842.97;5137936;27;45843;-83
2022/01/23 10:19:10;;;;;;;;;20.50;18.00;;;;;5.33;68.64;102857.84;5118680;27;46138;-85
2022/01/23 10:21:38;;;;;;;;;16.75;10.00;;;;;5.32;68.83;102845.56;5133742;27;45443;-84
2022/01/23 10:24:05;;;;;;;;;24.00;20.25;;;;;5.36;67.85;102834.50;5130378;27;45312;-82
2022/01/23 10:26:38;;;;;;;;;22.25;15.00;;;;;5.84;68.55;102928.13;5116219;27;46176;-83
2022/01/23 10:29:12;;;;;;;;;18.50;18.50;;;;;5.77;68.52;102922.41;5126935;27;45510;-82
2022/01/23 10:32:00;;;;;;;;;15.50;15.25;;;;;5.73;68.68;102910.88;5116348;27;45606;-81
2022/01/23 10:34:44;;;;;;;;;15.75;15.75;;;;;5.82;68.68;102927.13;5134005;27;45575;-80
2022/01/23 10:37:11;;;;;;;;;16.00;12.50;;;;;5.70;67.99;102914.22;5134950;27;45549;-82
2022/01/23 10:39:43;;;;;;;;;26.00;19.00;;;;;5.70;68.36;102921.16;5110593;27;45365;-80
2022/01/23 10:48:27;;;;;;;;;24.25;17.75;;;;;5.62;69.57;102931.13;5067525;28;45893;-85
2022/01/23 10:51:14;;;;;;;;;24.25;18.25;;;;;5.46;69.31;102894.38;5048960;28;45612;-82
2022/01/23 10:53:59;;;;;;;;;25.75;20.50;;;;;5.61;69.38;102918.88;5058102;28;45597;-83
2022/01/23 10:56:27;;;;;;;;;18.00;15.00;;;;;4.84;69.45;102789.44;5063906;28;45511;-83
2022/01/23 10:59:16;;;;;;;;;15.50;14.00;;;;;5.61;69.17;102920.56;5040208;28;47108;-83
2022/01/23 11:02:04;;;;;;;;;19.00;15.75;;;;;5.61;69.53;102918.88;5054120;28;45554;-85
2022/01/23 11:04:31;;;;;;;;;29.50;22.00;;;;;5.30;69.08;102841.94;5046531;28;45578;-83
2022/01/23 11:07:02;;;;;;;;;17.75;17.75;;;;;5.40;69.14;102875.72;5056313;28;45390;-83
2022/01/23 11:09:40;;;;;;;;;23.50;19.50;;;;;5.40;68.80;102871.38;5059624;28;45481;-83
2022/01/23 11:12:22;;;;;;;;;20.50;20.25;;;;;5.58;68.89;102909.91;5055590;28;45313;-82
2022/01/23 11:17:58;;;;;;;;;19.25;18.50;;;;;5.63;69.93;102900.66;5069529;28;45878;-82
2022/01/23 11:20:50;;;;;;;;;22.00;17.75;;;;;5.68;69.60;102900.16;5074583;27;45379;-82
2022/01/23 11:23:19;;;;;;;;;21.75;18.50;;;;;5.76;69.06;102878.75;5099945;27;45477;-83
2022/01/23 11:25:56;;;;;;;;;23.00;20.00;;;;;5.78;68.80;102885.91;5134940;27;45484;-83
2022/01/23 11:28:31;;;;;;;;;21.00;16.25;;;;;5.44;68.96;102820.19;5111630;27;45501;-84
2022/01/23 11:30:58;;;;;;;;;19.25;18.75;;;;;5.08;67.91;102754.41;5106572;27;47838;-81
2022/01/23 11:33:23;;;;;;;;;26.00;18.25;;;;;5.53;68.80;102825.97;5125411;27;45420;-81
2022/01/23 11:35:49;;;;;;;;;22.00;18.25;;;;;5.74;68.03;102870.84;5119503;27;45530;-81
2022/01/23 11:38:18;;;;;;;;;21.00;17.50;;;;;5.59;68.42;102860.34;5132151;27;45313;-81
2022/01/23 11:54:47;;;;;;;;;16.25;13.50;;;;;5.75;67.63;102853.44;5141795;27;45305;-86
2022/01/23 11:57:36;;;;;;;;;20.00;17.00;;;;;5.80;67.38;102852.00;5129377;27;45337;-82
2022/01/23 12:00:08;;;;;;;;;11.50;9.50;;;;;5.80;67.15;102849.41;5141350;27;45327;-81
2022/01/23 12:02:39;;;;;;;;;18.75;14.50;;;;;5.57;66.96;102821.81;5140500;27;45710;-83
2022/01/23 12:05:12;;;;;;;;;14.00;13.50;;;;;5.58;67.58;102844.53;5126545;27;45493;-80
2022/01/23 12:07:39;;;;;;;;;14.00;11.25;;;;;5.48;68.01;102823.88;5127327;27;45452;-80
2022/01/23 12:11:16;;;;;;;;;18.75;17.00;;;;;5.52;68.17;102807.59;5139061;27;45374;-83
2022/01/23 12:13:44;;;;;;;;;21.00;19.00;;;;;5.76;67.44;102836.91;5111727;27;46285;-84
2022/01/23 12:18:49;;;;;;;;;17.25;15.25;;;;;5.75;66.79;102836.03;5121304;27;45259;-80
2022/01/23 12:21:28;;;;;;;;;18.25;13.50;;;;;5.66;67.27;102806.69;5129037;27;45410;-78
2022/01/23 12:24:02;;;;;;;;;20.25;19.25;;;;;5.76;67.89;102810.78;5140957;27;45311;-82
2022/01/23 12:26:28;;;;;;;;;22.50;16.75;;;;;5.56;67.86;102786.94;5141913;27;45261;-84
2022/01/23 12:28:53;;;;;;;;;26.00;19.00;;;;;5.75;67.61;102803.75;5133377;27;45221;-85
2022/01/23 12:31:27;;;;;;;;;19.50;18.25;;;;;5.87;67.43;102821.09;5123757;27;45651;-88
2022/01/23 12:34:00;;;;;;;;;28.50;19.25;;;;;5.56;67.20;102744.22;5121270;27;46291;-83
2022/01/23 12:36:31;;;;;;;;;21.25;18.75;;;;;6.03;67.51;102806.31;5119829;27;45346;-84
2022/01/23 12:39:08;;;;;;;;;23.75;17.75;;;;;6.01;67.08;102806.22;5127534;27;45313;-86
2022/01/23 12:41:38;;;;;;;;;19.25;17.25;;;;;5.98;67.70;102800.84;5141940;27;45364;-83
2022/01/23 12:44:06;;;;;;;;;20.75;20.25;;;;;5.95;67.47;102800.63;5141062;27;45378;-86
2022/01/23 12:46:36;;;;;;;;;18.75;17.75;;;;;5.92;67.76;102795.22;5141170;27;45336;-83
2022/01/23 12:49:28;;;;;;;;;23.00;17.25;;;;;5.97;67.64;102793.78;5136862;27;45472;-84
2022/01/23 12:52:12;;;;;;;;;22.50;19.00;;;;;5.95;67.12;102790.16;5131023;27;45539;-85
2022/01/23 12:54:46;;;;;;;;;19.50;19.00;;;;;5.91;68.01;102782.97;5125967;27;45597;-84
2022/01/23 12:57:43;;;;;;;;;19.25;16.50;;;;;5.82;67.54;102785.91;5124825;27;45467;-84
2022/01/23 13:00:27;;;;;;;;;27.75;21.50;;;;;5.68;68.37;102760.66;5074169;28;45333;-89
2022/01/23 13:02:53;;;;;;;;;25.25;21.50;;;;;5.88;68.07;102767.97;5071643;28;45612;-87
2022/01/23 13:05:20;;;;;;;;;24.50;24.25;;;;;5.59;68.07;102713.06;5070594;28;46509;-92
2022/01/23 13:08:05;;;;;;;;;22.75;18.00;;;;;5.94;68.40;102762.19;5070587;28;45298;-83
2022/01/23 13:10:54;;;;;;;;;19.25;19.00;;;;;5.92;67.93;102729.84;5066475;28;46392;-81
2022/01/23 13:13:34;;;;;;;;;24.50;22.75;;;;;5.91;67.19;102704.50;5067199;28;45508;-84
2022/01/23 13:32:15;;;;;;;;;25.50;20.25;;;;;6.06;68.04;102743.72;5067476;28;45525;-85
2022/01/23 13:34:45;;;;;;;;;25.75;22.25;;;;;6.14;67.77;102745.97;5065404;28;45369;-83
2022/01/23 13:37:16;;;;;;;;;25.50;24.50;;;;;6.15;67.13;102736.41;5113770;27;46318;-79
2022/01/23 13:39:51;;;;;;;;;27.75;22.50;;;;;6.01;67.30;102688.50;5134614;27;45497;-85
2022/01/23 14:02:33;;;;;;;;;28.25;25.25;;;;;6.11;67.17;102703.91;5140746;27;46143;-77
2022/01/23 14:05:13;;;;;;;;;25.75;23.00;;;;;5.95;67.76;102670.72;5136827;27;45474;-75
2022/01/23 14:07:48;;;;;;;;;25.75;24.50;;;;;6.12;67.65;102699.56;5142608;27;45517;-76
2022/01/23 14:10:35;;;;;;;;;20.25;18.25;;;;;6.15;67.81;102697.16;5141633;27;45324;-79
2022/01/23 14:13:10;;;;;;;;;31.25;22.75;;;;;6.20;67.24;102693.06;5120171;27;44891;-79
2022/01/23 14:15:43;;;;;;;;;23.25;19.50;;;;;6.23;67.29;102686.28;5118589;27;45424;-79
2022/01/23 14:18:12;;;;;;;;;28.50;24.75;;;;;6.18;67.26;102689.47;5135934;27;45514;-81
2022/01/23 14:20:45;;;;;;;;;23.50;22.50;;;;;5.94;67.81;102655.84;5131397;27;46562;-82
2022/01/23 14:23:22;;;;;;;;;32.50;27.50;;;;;5.90;67.28;102660.81;5128242;27;45457;-83
2022/01/23 14:25:56;;;;;;;;;26.75;23.00;;;;;6.15;67.45;102684.06;5126070;27;45758;-78
2022/01/23 14:28:27;;;;;;;;;32.25;29.00;;;;;5.89;66.67;102630.25;5124870;27;45388;-81
2022/01/23 14:30:58;;;;;;;;;31.50;24.75;;;;;6.02;67.18;102634.47;5123355;27;45598;-86
2022/01/23 14:33:42;;;;;;;;;28.75;20.50;;;;;6.26;66.32;102677.72;5120022;27;45437;-85
2022/01/23 14:36:23;;;;;;;;;21.75;20.50;;;;;6.21;67.62;102653.00;5121311;27;45342;-83
2022/01/23 14:38:59;;;;;;;;;26.50;21.25;;;;;6.10;67.28;102639.31;5119056;27;45390;-83
2022/01/23 14:41:27;;;;;;;;;32.75;24.75;;;;;6.12;66.46;102627.22;5121410;27;45748;-85
2022/01/23 14:43:53;;;;;;;;;24.75;23.25;;;;;6.07;66.63;102620.84;5127648;27;45429;-83
2022/01/23 14:46:23;;;;;;;;;27.75;25.25;;;;;6.38;66.73;102653.94;5120911;27;45236;-81
2022/01/23 14:48:50;;;;;;;;;28.25;20.25;;;;;6.53;66.74;102665.25;5121274;27;45511;-82
2022/01/23 14:51:24;;;;;;;;;25.00;20.50;;;;;6.57;66.64;102665.50;5120418;27;45527;-78
2022/01/23 14:53:52;;;;;;;;;30.75;25.50;;;;;6.62;66.23;102662.25;5132953;27;45252;-79
2022/01/23 14:56:18;;;;;;;;;29.25;22.75;;;;;6.54;65.95;102659.19;5131000;27;45423;-79
2022/01/23 14:58:44;;;;;;;;;24.50;20.75;;;;;6.47;65.04;102655.34;5124389;27;45316;-83
2022/01/23 15:01:12;;;;;;;;;26.50;21.25;;;;;6.42;65.75;102651.59;5140441;27;46066;-83
2022/01/23 15:03:52;;;;;;;;;28.00;26.75;;;;;6.43;65.27;102665.56;5105719;27;45397;-87
2022/01/23 15:06:21;;;;;;;;;28.00;25.50;;;;;6.15;65.67;102623.88;5136008;27;44874;-94